Culbertson, Montana
Current Conditions -  °F | °C
As of 12:35 PM on Thursday 18 Dec 2014 (Local Time) from KSDY Reporting Station
Overcast Overcast  
Wind Chill: 28°   Ceiling: 900
Heat Index: 28°   Visibility: 10mi
Dew Point: 25°   Wind: 0mph
Humidity: 86%   Direction: NA
Pressure: 29.97"   Gusts: NA
Location:  48.14°N, 104.52°W
Report Text: KSDY 181935Z AUTO 00000KT 10SM OVC009 M02/M04 A2997 RMK AO1 P0013
Loading
Personal Weather Stations






























Interactive Weather Map New forecast layout! Learn more

10-Day Weather Forecast

Advertisements
Track Severe Weather on mobile